Time;durP1;ratioP1;P1;durP2;ratioP2;P2;SDS_P1;SDS_P2;PMS_P1;PMS_P2;Temp;Humidity;BMP_temperature;BMP_pressure;BME280_temperature;BME280_humidity;BME280_pressure;Samples;Min_cycle;Max_cycle;Signal;HPM_P1;HPM_P2
2023/03/22 00:01:21;;;;;;;86.65;40.33;;;;;;;0.64;85.77;100285.49;1778997;80;25388;-45
2023/03/22 00:03:51;;;;;;;82.08;38.15;;;;;;;0.61;85.76;100285.18;1748725;80;27571;-47
2023/03/22 00:06:18;;;;;;;81.92;39.03;;;;;;;0.57;85.62;100286.19;1777663;80;25440;-46
2023/03/22 00:08:52;;;;;;;85.22;37.78;;;;;;;0.54;85.72;100282.67;1778778;80;25397;-45
2023/03/22 00:11:24;;;;;;;79.82;36.20;;;;;;;0.52;85.79;100283.45;1778754;80;25603;-46
2023/03/22 00:13:52;;;;;;;82.02;36.68;;;;;;;0.50;86.06;100281.56;1778870;80;25147;-47
2023/03/22 00:16:21;;;;;;;73.02;34.65;;;;;;;0.47;86.15;100277.52;1778933;80;27462;-47
2023/03/22 00:18:48;;;;;;;79.25;39.05;;;;;;;0.45;85.99;100270.84;1711339;83;25534;-46
2023/03/22 00:21:16;;;;;;;92.22;39.20;;;;;;;0.42;85.69;100270.78;1741247;82;25428;-46
2023/03/22 00:23:45;;;;;;;77.40;38.08;;;;;;;0.38;85.89;100269.66;1711678;83;25575;-46
2023/03/22 00:26:14;;;;;;;78.42;39.83;;;;;;;0.37;86.43;100262.72;1778205;80;25436;-45
2023/03/22 00:28:42;;;;;;;91.47;40.43;;;;;;;0.34;86.06;100261.36;1711866;83;27506;-45
2023/03/22 00:31:10;;;;;;;90.25;41.35;;;;;;;0.29;85.89;100258.61;1778676;80;25734;-46
2023/03/22 00:33:37;;;;;;;86.92;38.83;;;;;;;0.26;86.01;100263.08;1778680;80;25566;-46
2023/03/22 00:36:10;;;;;;;88.82;39.45;;;;;;;0.23;85.90;100254.78;1778652;80;25610;-47
2023/03/22 00:38:38;;;;;;;92.70;41.08;;;;;;;0.22;86.14;100258.47;1778837;80;25413;-45
2023/03/22 00:41:20;;;;;;;93.50;40.08;;;;;;;0.19;86.02;100259.78;1778751;80;27510;-47
2023/03/22 00:43:50;;;;;;;94.65;44.53;;;;;;;0.13;85.66;100250.89;1778704;80;25463;-46
2023/03/22 00:46:19;;;;;;;;;;;;;;;0.08;85.53;100252.66;1781427;80;25437;-47
2023/03/22 00:48:47;;;;;;;96.67;39.85;;;;;;;0.05;85.84;100255.80;1778929;80;25411;-46
2023/03/22 00:51:15;;;;;;;93.55;43.68;;;;;;;0.03;85.74;100248.59;1778798;80;25477;-46
2023/03/22 00:53:43;;;;;;;93.27;42.08;;;;;;;-0.02;85.75;100251.45;1726016;80;27585;-48
2023/03/22 00:56:14;;;;;;;86.67;42.40;;;;;;;-0.04;85.85;100254.84;1778746;80;25587;-48
2023/03/22 00:58:42;;;;;;;87.27;42.20;;;;;;;-0.06;85.83;100241.52;1778814;80;25619;-46
2023/03/22 01:01:12;;;;;;;94.83;40.03;;;;;;;-0.09;85.88;100236.68;1778714;80;25573;-46
2023/03/22 01:03:40;;;;;;;93.92;42.62;;;;;;;-0.09;86.55;100244.13;1778899;80;25389;-47
2023/03/22 01:06:09;;;;;;;98.80;45.58;;;;;;;-0.06;87.75;100243.66;1778826;80;27553;-47
2023/03/22 01:08:37;;;;;;;89.65;42.75;;;;;;;-0.02;87.67;100246.64;1778965;80;25632;-48
2023/03/22 01:11:07;;;;;;;93.12;44.20;;;;;;;-0.03;87.51;100241.05;1778682;80;25407;-46
2023/03/22 01:13:36;;;;;;;96.55;43.85;;;;;;;-0.05;87.03;100242.62;1779035;80;25553;-47
2023/03/22 01:16:06;;;;;;;99.87;46.05;;;;;;;-0.07;86.87;100242.56;1778966;80;25688;-47
2023/03/22 01:18:35;;;;;;;97.90;44.53;;;;;;;-0.08;86.88;100247.61;1778947;80;27566;-46
2023/03/22 01:21:03;;;;;;;62.93;30.02;;;;;;;-0.12;86.93;100241.14;1778948;80;25625;-46
2023/03/22 01:23:29;;;;;;;80.85;40.05;;;;;;;-0.13;87.00;100240.34;1778931;80;25257;-46
2023/03/22 01:25:57;;;;;;;86.30;40.98;;;;;;;-0.13;87.11;100235.56;1778847;80;27589;-46
2023/03/22 01:28:25;;;;;;;88.67;43.05;;;;;;;-0.14;87.24;100230.74;1778885;80;25396;-47
2023/03/22 01:30:51;;;;;;;100.18;44.42;;;;;;;-0.15;86.96;100235.80;1711678;83;27558;-47
2023/03/22 01:33:18;;;;;;;96.32;41.85;;;;;;;-0.18;86.82;100234.94;1778754;80;25624;-46
2023/03/22 01:35:44;;;;;;;95.00;44.67;;;;;;;-0.22;86.47;100235.14;1764714;80;25625;-47
2023/03/22 01:38:11;;;;;;;100.27;45.45;;;;;;;-0.26;86.47;100228.14;1758283;81;25636;-47
2023/03/22 01:40:38;;;;;;;91.47;45.23;;;;;;;-0.28;86.28;100231.56;1758440;81;25456;-46
2023/03/22 01:43:13;;;;;;;100.22;45.78;;;;;;;-0.31;86.66;100225.92;1758409;81;28120;-48
2023/03/22 01:45:45;;;;;;;95.85;46.28;;;;;;;-0.33;86.52;100226.69;1758323;81;25555;-48
2023/03/22 01:48:44;;;;;;;102.72;45.23;;;;;;;-0.36;86.20;100223.17;1758345;81;25570;-46
2023/03/22 01:51:20;;;;;;;91.20;42.33;;;;;;;-0.40;86.21;100219.66;1681226;84;27693;-48
2023/03/22 01:54:04;;;;;;;90.75;42.25;;;;;;;-0.42;86.25;100213.77;1697263;84;25624;-47
2023/03/22 01:56:36;;;;;;;100.53;41.88;;;;;;;-0.43;86.57;100212.68;1755061;81;27574;-47
2023/03/22 01:59:06;;;;;;;84.90;43.58;;;;;;;-0.44;86.57;100217.20;1758453;81;25378;-46
2023/03/22 02:01:35;;;;;;;94.90;44.08;;;;;;;-0.46;86.76;100206.51;1758052;81;25627;-46
2023/03/22 02:04:11;;;;;;;105.17;46.30;;;;;;;-0.48;86.59;100209.40;1757811;81;25623;-46
2023/03/22 02:06:39;;;;;;;101.82;43.15;;;;;;;-0.48;87.01;100205.94;1758439;81;25488;-45
2023/03/22 02:09:10;;;;;;;96.72;41.80;;;;;;;-0.50;86.84;100202.19;1758441;81;27572;-44
2023/03/22 02:11:45;;;;;;;99.80;43.85;;;;;;;-0.50;86.95;100199.53;1758716;81;25697;-46
2023/03/22 02:14:32;;;;;;;93.87;41.50;;;;;;;-0.51;87.11;100195.28;1758512;81;25606;-45
2023/03/22 02:17:28;;;;;;;84.50;38.45;;;;;;;-0.51;87.19;100196.61;1757977;81;25564;-46
2023/03/22 02:20:27;;;;;;;87.82;40.45;;;;;;;-0.50;87.67;100197.41;1649450;86;25568;-46
2023/03/22 02:23:16;;;;;;;100.85;39.73;;;;;;;-0.46;88.08;100197.20;1649756;87;27489;-45
2023/03/22 02:25:57;;;;;;;93.20;37.73;;;;;;;-0.45;88.42;100193.52;1649055;87;27402;-44
2023/03/22 02:29:02;;;;;;;90.05;40.92;;;;;;;-0.44;88.48;100200.45;1648802;87;25658;-46
2023/03/22 02:32:11;;;;;;;98.15;42.53;;;;;;;-0.43;88.57;100194.08;1650016;86;25529;-45
2023/03/22 02:35:06;;;;;;;85.38;40.25;;;;;;;-0.43;88.22;100193.55;1648870;86;25608;-45
2023/03/22 02:38:18;;;;;;;86.05;40.83;;;;;;;-0.43;88.38;100196.20;1644127;87;27515;-47
2023/03/22 02:41:11;;;;;;;87.33;40.55;;;;;;;-0.42;88.66;100197.03;1643856;87;26201;-47
2023/03/22 02:44:02;;;;;;;97.85;41.13;;;;;;;-0.44;88.19;100195.94;1643961;87;25584;-46
2023/03/22 02:46:39;;;;;;;86.95;39.35;;;;;;;-0.43;88.52;100196.20;1638265;87;26362;-47
2023/03/22 02:49:17;;;;;;;94.60;40.98;;;;;;;-0.43;88.61;100192.22;1643859;87;25666;-45
2023/03/22 02:51:49;;;;;;;98.42;42.83;;;;;;;-0.43;88.45;100186.91;1644076;87;29701;-47
2023/03/22 02:54:34;;;;;;;93.72;40.38;;;;;;;-0.43;88.25;100184.25;1697507;82;25674;-46
2023/03/22 02:57:15;;;;;;;83.07;39.65;;;;;;;-0.43;88.67;100180.26;1742815;82;25461;-46
2023/03/22 02:59:44;;;;;;;81.25;37.53;;;;;;;-0.41;88.71;100182.68;1742865;82;25551;-46
2023/03/22 03:02:17;;;;;;;92.45;41.58;;;;;;;-0.42;88.64;100178.42;1743095;82;25632;-46
2023/03/22 03:04:49;;;;;;;82.90;38.23;;;;;;;-0.40;88.80;100171.81;1742920;82;27770;-46
2023/03/22 03:07:24;;;;;;;88.00;39.33;;;;;;;-0.39;88.68;100173.97;1743097;81;25561;-46
2023/03/22 03:09:52;;;;;;;88.07;39.48;;;;;;;-0.36;88.79;100177.45;1743041;82;25622;-47
2023/03/22 03:12:23;;;;;;;92.80;40.28;;;;;;;-0.36;88.88;100177.45;1721881;82;25534;-46
2023/03/22 03:14:51;;;;;;;85.72;39.45;;;;;;;-0.34;89.04;100174.56;1742900;82;25614;-47
2023/03/22 03:17:41;;;;;;;80.05;36.98;;;;;;;-0.35;88.86;100171.64;1742869;82;27599;-46
2023/03/22 03:20:33;;;;;;;85.40;37.55;;;;;;;-0.35;88.89;100164.99;1742987;82;25397;-47
2023/03/22 03:23:31;;;;;;;81.25;36.88;;;;;;;-0.32;89.07;100175.13;1743143;81;25624;-46
2023/03/22 03:26:08;;;;;;;77.03;36.58;;;;;;;-0.33;89.28;100173.00;1742866;82;25611;-46
2023/03/22 03:29:06;;;;;;;77.97;35.30;;;;;;;-0.32;89.47;100178.61;1743021;82;32682;-46
2023/03/22 03:32:07;;;;;;;75.20;35.17;;;;;;;-0.31;89.52;100174.88;1742960;82;27582;-47
2023/03/22 03:35:21;;;;;;;78.47;35.92;;;;;;;-0.30;89.58;100172.52;1742771;82;27289;-46
2023/03/22 03:37:56;;;;;;;84.28;34.48;;;;;;;-0.31;89.43;100163.45;1777056;80;25550;-45
2023/03/22 03:40:33;;;;;;;71.15;33.23;;;;;;;-0.32;89.52;100160.00;1778840;80;25602;-46
2023/03/22 03:43:03;;;;;;;81.57;34.60;;;;;;;-0.31;89.75;100158.14;1778782;80;25456;-46
2023/03/22 03:45:31;;;;;;;77.97;35.50;;;;;;;-0.32;89.83;100158.67;1778794;80;26046;-46
2023/03/22 03:48:03;;;;;;;84.40;35.25;;;;;;;-0.31;89.98;100158.14;1778637;80;27367;-47
2023/03/22 03:50:31;;;;;;;77.58;35.23;;;;;;;-0.30;89.95;100165.08;1711696;83;25525;-45
2023/03/22 03:52:58;;;;;;;83.03;38.60;;;;;;;-0.31;89.79;100165.58;1778473;80;25677;-45
2023/03/22 03:55:27;;;;;;;73.35;33.55;;;;;;;-0.30;89.86;100165.08;1778762;80;25436;-47
2023/03/22 03:57:55;;;;;;;72.53;33.28;;;;;;;-0.30;89.83;100165.87;1778832;80;27436;-46
2023/03/22 04:00:23;;;;;;;79.10;34.92;;;;;;;-0.31;90.23;100157.61;1778675;80;25846;-46
2023/03/22 04:02:50;;;;;;;70.20;32.13;;;;;;;-0.29;90.49;100159.53;1778748;80;25542;-45
2023/03/22 04:05:17;;;;;;;74.47;33.55;;;;;;;-0.29;90.62;100160.86;1778761;80;25436;-46
2023/03/22 04:07:44;;;;;;;68.12;32.35;;;;;;;-0.28;90.76;100163.78;1778711;80;25487;-46
2023/03/22 04:10:10;;;;;;;71.02;32.67;;;;;;;-0.27;90.77;100160.09;1778818;80;27653;-45
2023/03/22 04:12:37;;;;;;;61.77;28.95;;;;;;;-0.26;90.94;100164.88;1778826;80;25569;-47
2023/03/22 04:15:07;;;;;;;71.55;30.17;;;;;;;-0.25;91.03;100166.49;1778762;80;25420;-46
2023/03/22 04:17:34;;;;;;;82.85;28.83;;;;;;;-0.24;91.03;100167.59;1711840;83;25477;-46
2023/03/22 04:20:05;;;;;;;72.15;29.45;;;;;;;-0.23;91.13;100168.39;1778399;80;25563;-46
2023/03/22 04:22:33;;;;;;;67.37;29.10;;;;;;;-0.24;91.15;100156.13;1778033;80;27489;-46
2023/03/22 04:24:58;;;;;;;65.83;29.00;;;;;;;-0.26;91.11;100160.35;1778012;80;25465;-46
2023/03/22 04:27:24;;;;;;;61.37;28.45;;;;;;;-0.27;91.23;100154.77;1778665;80;25377;-47
2023/03/22 04:29:51;;;;;;;79.35;30.72;;;;;;;-0.24;91.38;100154.80;1778697;80;26413;-47
2023/03/22 04:32:24;;;;;;;56.30;27.07;;;;;;;-0.24;91.60;100157.45;1778762;80;25571;-45
2023/03/22 04:34:52;;;;;;;67.50;30.25;;;;;;;-0.23;91.67;100161.73;1778822;80;27439;-46
2023/03/22 04:37:23;;;;;;;72.85;27.98;;;;;;;-0.22;91.66;100163.36;1760037;80;25598;-47
2023/03/22 04:39:48;;;;;;;65.12;26.85;;;;;;;-0.22;91.82;100158.84;1758336;81;25566;-46
2023/03/22 04:42:16;;;;;;;56.35;26.40;;;;;;;-0.22;91.92;100160.70;1757937;81;25532;-46
2023/03/22 04:44:42;;;;;;;63.92;28.70;;;;;;;-0.22;92.04;100160.17;1758114;81;25599;-46
2023/03/22 04:47:10;;;;;;;58.68;26.65;;;;;;;-0.20;92.04;100162.59;1758263;81;27458;-46
2023/03/22 04:49:36;;;;;;;52.60;24.55;;;;;;;-0.20;92.27;100167.38;1758278;81;25591;-46
2023/03/22 04:52:02;;;;;;;62.08;25.12;;;;;;;-0.17;92.30;100170.59;1758218;81;25504;-45
2023/03/22 04:54:29;;;;;;;60.90;25.68;;;;;;;-0.16;92.42;100160.26;1758133;81;25623;-45
2023/03/22 04:56:55;;;;;;;54.05;26.48;;;;;;;-0.13;92.57;100162.44;1758311;81;25638;-47
2023/03/22 04:59:21;;;;;;;56.20;25.00;;;;;;;-0.12;92.61;100162.70;1758242;81;27520;-45
2023/03/22 05:01:51;;;;;;;59.27;24.67;;;;;;;-0.09;92.73;100171.53;1757919;81;25373;-47
2023/03/22 05:04:19;;;;;;;51.48;22.42;;;;;;;-0.08;93.08;100165.98;1758318;81;25614;-49
2023/03/22 05:06:47;;;;;;;58.17;25.45;;;;;;;-0.06;93.04;100167.07;1758027;81;26135;-46
2023/03/22 05:09:14;;;;;;;52.03;22.55;;;;;;;-0.03;92.91;100165.27;1757760;81;25405;-46
2023/03/22 05:11:42;;;;;;;51.13;24.23;;;;;;;-0.02;93.03;100161.54;1758256;81;27528;-47
2023/03/22 05:14:09;;;;;;;48.60;23.22;;;;;;;0.02;93.09;100163.19;1757809;81;26022;-46
2023/03/22 05:16:40;;;;;;;44.42;19.95;;;;;;;0.05;93.12;100182.66;1758247;81;25640;-48
2023/03/22 05:19:15;;;;;;;44.45;18.50;;;;;;;0.07;93.46;100175.23;1758255;81;27737;-46
2023/03/22 05:21:43;;;;;;;44.53;21.70;;;;;;;0.12;93.76;100177.47;1758348;81;25539;-47
2023/03/22 05:24:11;;;;;;;49.50;22.80;;;;;;;0.16;93.85;100174.59;1681395;85;27586;-47
2023/03/22 05:26:41;;;;;;;51.80;24.12;;;;;;;0.20;93.91;100171.45;1681968;85;25600;-46
2023/03/22 05:29:11;;;;;;;51.88;23.57;;;;;;;0.24;93.91;100175.23;1678927;85;25399;-46
2023/03/22 05:31:39;;;;;;;44.20;20.97;;;;;;;0.29;93.89;100177.97;1758230;81;25591;-46
2023/03/22 05:34:06;;;;;;;42.93;19.30;;;;;;;0.34;94.10;100181.53;1758221;81;25610;-47
2023/03/22 05:36:35;;;;;;;45.75;20.68;;;;;;;0.39;94.51;100184.77;1695016;83;27598;-46
2023/03/22 05:39:04;;;;;;;48.58;19.32;;;;;;;0.42;94.44;100182.16;1741118;82;25899;-47
2023/03/22 05:41:32;;;;;;;42.83;18.52;;;;;;;0.47;94.59;100180.91;1711798;83;25407;-50
2023/03/22 05:44:01;;;;;;;41.35;19.65;;;;;;;0.53;94.76;100182.60;1711808;83;25538;-50
2023/03/22 05:46:28;;;;;;;43.80;20.65;;;;;;;0.61;95.07;100183.48;1741365;82;25490;-48
2023/03/22 05:48:54;;;;;;;44.83;19.85;;;;;;;0.69;95.32;100187.59;1711780;83;27544;-46
2023/03/22 05:51:24;;;;;;;44.70;19.10;;;;;;;0.77;95.68;100172.54;1710161;83;25395;-48
2023/03/22 05:53:53;;;;;;;44.08;20.57;;;;;;;0.86;95.82;100178.23;1740976;82;25424;-45
2023/03/22 05:56:23;;;;;;;46.77;22.55;;;;;;;0.93;95.83;100179.65;1711877;83;25575;-49
2023/03/22 05:58:50;;;;;;;42.13;20.02;;;;;;;1.01;96.79;100177.62;1711797;83;25564;-51
2023/03/22 06:01:20;;;;;;;41.75;19.73;;;;;;;1.09;96.71;100179.33;1711770;83;27554;-48
2023/03/22 06:03:49;;;;;;;;;;;;;;;1.23;98.29;100177.62;1743893;82;25410;-47
2023/03/22 06:06:17;;;;;;;39.13;17.82;;;;;;;1.38;97.58;100180.95;1700536;84;25564;-47
2023/03/22 06:08:45;;;;;;;38.75;18.85;;;;;;;1.51;98.07;100183.77;1741309;82;26440;-51
2023/03/22 06:11:11;;;;;;;41.25;19.23;;;;;;;1.68;98.08;100185.27;1741444;82;25441;-47
2023/03/22 06:13:38;;;;;;;46.65;20.72;;;;;;;1.87;98.24;100195.57;1711687;83;27510;-48
2023/03/22 06:16:06;;;;;;;47.03;22.13;;;;;;;2.02;98.13;100198.91;1711623;83;26098;-48
2023/03/22 06:18:33;;;;;;;41.77;20.52;;;;;;;2.11;97.56;100200.58;1741370;82;25563;-47
2023/03/22 06:21:00;;;;;;;44.63;21.17;;;;;;;2.24;97.64;100200.95;1711730;83;25600;-48
2023/03/22 06:23:27;;;;;;;44.93;20.90;;;;;;;2.32;96.84;100200.22;1711791;83;25460;-46
2023/03/22 06:25:54;;;;;;;41.85;19.85;;;;;;;2.39;96.66;100190.91;1741358;82;27481;-46
2023/03/22 06:28:20;;;;;;;43.63;21.15;;;;;;;2.45;95.96;100190.95;1711714;83;25575;-47
2023/03/22 06:30:46;;;;;;;40.00;19.75;;;;;;;2.54;96.18;100190.22;1711864;83;25420;-48
2023/03/22 06:33:12;;;;;;;40.60;20.00;;;;;;;2.69;96.24;100188.17;1741419;82;25569;-47
2023/03/22 06:35:39;;;;;;;42.43;19.65;;;;;;;2.89;96.71;100191.45;1711755;83;25724;-48
2023/03/22 06:38:06;;;;;;;42.27;21.15;;;;;;;3.06;96.68;100193.15;1736784;82;27476;-47
2023/03/22 06:40:33;;;;;;;42.60;20.80;;;;;;;3.25;96.72;100186.28;1736314;82;25414;-47
2023/03/22 06:42:59;;;;;;;39.80;21.33;;;;;;;3.47;96.70;100198.08;1736366;82;25479;-48
2023/03/22 06:45:25;;;;;;;38.08;20.02;;;;;;;3.62;95.92;100185.83;1736379;81;25423;-48
2023/03/22 06:47:52;;;;;;;39.48;20.12;;;;;;;3.87;96.89;100179.16;1736374;82;25613;-48
2023/03/22 06:50:18;;;;;;;37.88;20.35;;;;;;;4.12;96.60;100188.29;1736318;82;29820;-48
2023/03/22 06:52:44;;;;;;;38.65;20.10;;;;;;;4.35;96.30;100176.75;1736254;82;27354;-47
2023/03/22 06:55:10;;;;;;;41.28;21.55;;;;;;;4.59;96.54;100180.98;1736328;82;25638;-48
2023/03/22 06:57:37;;;;;;;41.85;19.77;;;;;;;4.85;95.85;100180.37;1736286;82;25627;-49
2023/03/22 07:00:05;;;;;;;34.53;19.00;;;;;;;5.10;95.05;100181.36;1736339;82;25557;-48
2023/03/22 07:02:32;;;;;;;34.15;18.55;;;;;;;5.36;94.80;100182.03;1736615;82;27518;-47
2023/03/22 07:04:59;;;;;;;36.40;20.30;;;;;;;5.74;95.86;100186.38;1736256;82;25693;-48
2023/03/22 07:07:25;;;;;;;35.25;19.23;;;;;;;6.00;94.21;100178.96;1736296;82;25440;-49
2023/03/22 07:09:52;;;;;;;33.48;19.50;;;;;;;6.25;93.73;100173.92;1736292;82;25452;-48
2023/03/22 07:12:18;;;;;;;31.65;18.23;;;;;;;6.63;95.18;100176.77;1736416;82;25642;-49
2023/03/22 07:14:46;;;;;;;32.73;18.55;;;;;;;6.94;92.76;100172.94;1736380;82;28021;-50
2023/03/22 07:17:13;;;;;;;30.15;18.42;;;;;;;7.13;90.35;100158.97;1736244;82;25640;-47
2023/03/22 07:19:41;;;;;;;30.72;18.02;;;;;;;7.37;91.77;100162.16;1736361;81;25487;-49
2023/03/22 07:22:09;;;;;;;30.55;17.80;;;;;;;7.68;91.34;100161.19;1736454;81;25740;-50
2023/03/22 07:24:35;;;;;;;31.87;17.45;;;;;;;7.90;88.58;100162.45;1736349;82;25512;-50
2023/03/22 07:27:03;;;;;;;25.92;15.60;;;;;;;8.06;88.22;100154.38;1736334;81;27528;-49
2023/03/22 07:29:30;;;;;;;25.35;16.65;;;;;;;8.30;89.12;100154.23;1736259;81;25700;-49
2023/03/22 07:31:57;;;;;;;25.10;15.88;;;;;;;8.58;87.38;100153.76;1736333;81;25610;-48
2023/03/22 07:34:24;;;;;;;25.23;15.48;;;;;;;8.72;86.15;100151.06;1736328;82;25673;-49
2023/03/22 07:36:51;;;;;;;24.52;15.03;;;;;;;9.02;87.02;100146.70;1734114;81;25659;-48
2023/03/22 07:39:17;;;;;;;26.05;14.90;;;;;;;9.28;84.04;100149.11;1729186;82;27750;-48
2023/03/22 07:41:44;;;;;;;22.15;14.45;;;;;;;9.40;82.10;100153.98;1721671;82;27447;-48
2023/03/22 07:44:11;;;;;;;23.25;14.00;;;;;;;9.40;80.79;100136.96;1729235;82;25388;-50
2023/03/22 07:46:37;;;;;;;20.02;12.60;;;;;;;9.40;80.22;100141.83;1722015;81;25524;-48
2023/03/22 07:49:03;;;;;;;22.52;13.48;;;;;;;9.43;80.55;100134.48;1721933;82;25673;-50
2023/03/22 07:51:29;;;;;;;23.40;14.30;;;;;;;9.56;79.25;100138.78;1721998;83;28057;-50
2023/03/22 07:53:56;;;;;;;18.98;13.98;;;;;;;9.81;80.81;100136.82;1721779;83;25791;-46
2023/03/22 07:56:25;;;;;;;21.95;14.38;;;;;;;10.25;80.64;100136.53;1721863;83;25607;-46
2023/03/22 08:14:23;;;;;;;18.62;13.38;;;;;;;14.26;71.26;100122.14;1712439;83;25669;-49
2023/03/22 08:16:50;;;;;;;20.27;12.95;;;;;;;15.18;69.04;100118.05;1713458;83;29647;-47
2023/03/22 08:19:18;;;;;;;17.57;12.30;;;;;;;15.42;64.38;100113.66;1685751;85;25404;-50
2023/03/22 08:21:45;;;;;;;20.00;13.18;;;;;;;15.61;63.24;100115.75;1685486;85;25669;-46
2023/03/22 08:26:55;;;;;;;17.82;11.97;;;;;;;15.87;62.78;100124.30;1924995;74;25237;-47
2023/03/22 08:29:22;;;;;;;17.05;12.15;;;;;;;15.56;60.69;100115.45;1822303;78;25530;-47
2023/03/22 08:31:51;;;;;;;17.55;11.83;;;;;;;15.16;60.36;100111.37;1855691;77;27545;-45
2023/03/22 08:34:19;;;;;;;18.95;12.98;;;;;;;14.98;60.96;100106.73;1822051;78;25391;-47
2023/03/22 08:36:47;;;;;;;19.30;12.70;;;;;;;14.95;60.31;100112.31;1822054;78;25517;-47
2023/03/22 08:39:14;;;;;;;;;;;;;;;14.62;57.76;100110.50;1824809;78;25706;-47
2023/03/22 08:41:40;;;;;;;19.57;12.70;;;;;;;14.22;57.63;100115.22;1855670;77;25589;-49
2023/03/22 08:44:08;;;;;;;20.08;12.05;;;;;;;13.92;59.81;100107.78;1855760;77;27566;-49
2023/03/22 08:46:34;;;;;;;17.07;11.53;;;;;;;14.07;60.47;100110.43;1821924;78;25612;-50
2023/03/22 08:49:03;;;;;;;16.95;12.23;;;;;;;14.41;60.41;100110.59;1822127;78;25522;-48
2023/03/22 08:51:30;;;;;;;15.75;11.88;;;;;;;14.63;61.16;100119.48;1822067;78;25545;-47
2023/03/22 08:53:57;;;;;;;19.12;13.38;;;;;;;14.83;59.25;100109.58;1821963;78;25377;-49
2023/03/22 08:56:26;;;;;;;17.07;12.25;;;;;;;14.72;58.49;100108.69;1822030;78;27142;-45
2023/03/22 08:58:54;;;;;;;17.05;12.65;;;;;;;14.60;57.35;100111.99;1821959;78;25428;-47
2023/03/22 09:01:20;;;;;;;17.92;12.98;;;;;;;14.26;57.08;100108.53;1822078;78;25455;-47
2023/03/22 09:03:46;;;;;;;20.27;13.22;;;;;;;13.82;56.85;100104.91;1821982;78;27249;-47
2023/03/22 09:06:14;;;;;;;17.62;11.55;;;;;;;13.46;58.17;100099.57;1822019;78;25569;-47
2023/03/22 09:08:40;;;;;;;18.45;12.47;;;;;;;13.23;59.27;100093.67;1790157;78;27334;-46
2023/03/22 09:11:11;;;;;;;17.92;11.90;;;;;;;13.11;59.33;100096.30;1821987;78;25679;-46
2023/03/22 09:13:39;;;;;;;16.77;12.50;;;;;;;12.93;59.70;100082.84;1822088;78;25443;-48
2023/03/22 09:16:08;;;;;;;22.77;13.62;;;;;;;12.81;61.16;100082.20;1822359;78;25382;-50
2023/03/22 09:18:38;;;;;;;17.50;12.58;;;;;;;12.67;61.02;100087.09;1822255;78;25385;-50
2023/03/22 09:21:09;;;;;;;16.32;11.80;;;;;;;12.46;60.72;100077.52;1822095;78;27487;-45
2023/03/22 09:23:38;;;;;;;18.05;11.78;;;;;;;12.29;60.59;100079.21;1822055;78;25733;-49
2023/03/22 09:26:08;;;;;;;17.27;12.13;;;;;;;12.16;61.73;100082.92;1825344;78;25542;-47
2023/03/22 09:28:36;;;;;;;18.45;12.95;;;;;;;11.99;61.16;100081.63;1828157;78;25445;-47
2023/03/22 09:31:09;;;;;;;16.85;11.80;;;;;;;11.84;61.67;100083.70;1828151;78;25588;-45
2023/03/22 09:33:40;;;;;;;17.82;12.18;;;;;;;11.74;62.39;100093.52;1828213;78;28081;-46
2023/03/22 09:36:10;;;;;;;20.40;13.13;;;;;;;11.58;61.97;100077.77;1828067;78;25621;-45
2023/03/22 09:38:40;;;;;;;22.07;12.82;;;;;;;11.42;62.76;100072.59;1827565;78;25449;-47
2023/03/22 09:41:16;;;;;;;16.97;12.28;;;;;;;11.30;62.37;100068.38;1827527;78;25434;-46
2023/03/22 09:43:48;;;;;;;19.92;11.85;;;;;;;11.18;63.31;100077.14;1827420;78;25563;-48
2023/03/22 09:46:19;;;;;;;20.75;12.50;;;;;;;11.09;64.25;100072.29;1827587;78;27474;-48
2023/03/22 09:48:49;;;;;;;18.48;13.05;;;;;;;11.03;64.42;100079.74;1827072;78;25552;-48
2023/03/22 09:51:31;;;;;;;19.75;13.08;;;;;;;10.87;64.42;100068.59;1827580;78;25586;-48
2023/03/22 09:53:58;;;;;;;23.15;13.72;;;;;;;10.77;64.84;100062.92;1814066;78;25412;-46
2023/03/22 09:56:28;;;;;;;19.45;13.50;;;;;;;10.70;65.29;100061.80;1861263;77;25493;-47
2023/03/22 09:59:22;;;;;;;25.00;14.05;;;;;;;10.64;65.62;100053.84;1827583;78;27636;-45
2023/03/22 10:02:03;;;;;;;23.05;14.13;;;;;;;10.62;66.13;100048.48;1827572;78;25356;-48
2023/03/22 10:04:36;;;;;;;22.52;14.05;;;;;;;10.62;66.42;100057.42;1827674;78;25753;-47
2023/03/22 10:07:15;;;;;;;20.50;13.45;;;;;;;10.62;66.68;100046.60;1827324;78;27392;-50
2023/03/22 10:10:07;;;;;;;20.55;13.70;;;;;;;10.61;66.63;100046.34;1827568;78;25465;-48
2023/03/22 10:12:56;;;;;;;21.68;13.50;;;;;;;10.63;65.84;100052.80;1827180;78;28905;-47
2023/03/22 10:15:52;;;;;;;21.10;12.63;;;;;;;10.67;66.66;100024.00;1827597;78;25866;-50
2023/03/22 10:18:45;;;;;;;23.32;12.88;;;;;;;10.70;66.63;100032.05;1827482;78;25616;-48
2023/03/22 10:21:15;;;;;;;18.52;12.70;;;;;;;10.76;66.28;100018.59;1826420;78;25546;-47
2023/03/22 10:23:56;;;;;;;22.67;14.20;;;;;;;10.75;66.74;100023.22;1827707;78;25534;-47
2023/03/22 10:26:33;;;;;;;21.97;13.55;;;;;;;10.73;66.75;100014.63;1856397;77;27681;-49
2023/03/22 10:29:05;;;;;;;21.12;12.43;;;;;;;10.77;66.88;100033.16;1820448;78;25560;-46
2023/03/22 10:31:33;;;;;;;22.42;13.58;;;;;;;10.80;67.13;100035.23;1820857;78;25594;-52
2023/03/22 10:34:20;;;;;;;22.25;13.38;;;;;;;10.85;66.87;100031.59;1821469;78;25538;-51
2023/03/22 10:36:50;;;;;;;21.45;14.00;;;;;;;10.86;67.42;100022.34;1821454;78;25451;-48
2023/03/22 10:39:30;;;;;;;18.98;12.68;;;;;;;10.98;67.86;100025.77;1821443;78;28125;-48
2023/03/22 10:42:02;;;;;;;21.82;13.18;;;;;;;11.03;67.70;100024.27;1711449;83;25950;-47
2023/03/22 10:44:35;;;;;;;20.37;12.28;;;;;;;11.08;67.62;100034.93;1710417;83;25659;-52
2023/03/22 10:47:06;;;;;;;21.35;12.93;;;;;;;11.10;67.64;100024.61;1710911;83;25918;-50
2023/03/22 10:49:50;;;;;;;22.35;13.75;;;;;;;11.16;67.83;100028.72;1710798;83;25664;-48
2023/03/22 10:52:56;;;;;;;19.32;12.43;;;;;;;11.18;67.79;100023.00;1710769;83;27585;-47
2023/03/22 10:55:24;;;;;;;18.27;12.53;;;;;;;11.20;67.32;100027.53;1775170;80;25493;-48
2023/03/22 10:58:20;;;;;;;19.40;12.30;;;;;;;11.23;67.47;100026.11;1741209;82;25683;-49
2023/03/22 11:00:55;;;;;;;17.02;10.78;;;;;;;11.25;67.20;100032.78;1775539;80;25468;-48
2023/03/22 11:03:36;;;;;;;23.45;12.40;;;;;;;11.35;67.43;100024.89;1741197;82;25460;-47
2023/03/22 11:06:13;;;;;;;22.58;13.18;;;;;;;11.39;67.33;100021.77;1775597;80;27497;-51
2023/03/22 11:08:53;;;;;;;20.20;12.33;;;;;;;11.39;67.04;100023.13;1741115;82;25511;-49
2023/03/22 11:11:23;;;;;;;;;;;;;;;11.36;66.23;100023.79;1778241;80;25590;-48
2023/03/22 11:14:12;;;;;;;20.62;13.38;;;;;;;11.33;66.85;100011.67;1775589;80;25647;-50
2023/03/22 11:16:57;;;;;;;20.95;13.08;;;;;;;11.29;66.46;100010.73;1773117;80;25488;-47
2023/03/22 11:19:48;;;;;;;21.27;13.18;;;;;;;11.24;66.82;100001.42;1792687;78;27598;-48
2023/03/22 11:22:35;;;;;;;20.50;12.47;;;;;;;11.34;66.88;100007.05;1813252;78;25727;-48
2023/03/22 11:25:07;;;;;;;20.97;12.60;;;;;;;11.36;66.83;100009.69;1789627;78;25622;-49
2023/03/22 11:27:35;;;;;;;20.25;12.75;;;;;;;11.43;67.36;100005.70;1852097;77;25576;-48
2023/03/22 11:30:21;;;;;;;18.75;12.23;;;;;;;11.49;67.47;100009.28;1821420;78;25602;-48
2023/03/22 11:32:48;;;;;;;18.10;11.90;;;;;;;11.52;66.72;100003.77;1821100;78;27534;-48
2023/03/22 11:35:25;;;;;;;18.87;11.88;;;;;;;11.53;66.81;99998.02;1821296;78;25753;-48
2023/03/22 11:37:54;;;;;;;20.17;11.90;;;;;;;11.53;67.16;99985.05;1821327;78;25415;-46
2023/03/22 11:40:34;;;;;;;18.40;12.78;;;;;;;11.55;66.85;99993.64;1821454;78;27391;-47
2023/03/22 11:43:20;;;;;;;21.80;12.73;;;;;;;11.51;66.82;99988.61;1821461;78;25555;-51
2023/03/22 11:45:52;;;;;;;18.55;11.83;;;;;;;11.53;66.59;99993.17;1820801;78;27478;-49
2023/03/22 11:48:26;;;;;;;31.17;16.15;;;;;;;11.48;66.22;99988.72;1821274;78;25599;-48
2023/03/22 11:50:56;;;;;;;18.90;12.80;;;;;;;11.44;66.88;99982.36;1821358;78;25431;-49
2023/03/22 11:53:26;;;;;;;21.02;12.43;;;;;;;11.50;67.28;99986.47;1821171;78;25521;-48